Time;durP1;ratioP1;P1;durP2;ratioP2;P2;SDS_P1;SDS_P2;PMS_P1;PMS_P2;Temp;Humidity;BMP_temperature;BMP_pressure;BME280_temperature;BME280_humidity;BME280_pressure;Samples;Min_cycle;Max_cycle;Signal;HPM_P1;HPM_P2
2023/05/18 00:00:36;;;;;;;10.35;5.63;;;;;;;;;;5096763;28;20032;-69
2023/05/18 00:03:02;;;;;;;10.65;5.05;;;;;;;;;;5096968;28;20123;-69
2023/05/18 00:05:32;;;;;;;8.55;5.43;;;;;;;;;;5096846;28;20467;-70
2023/05/18 00:07:58;;;;;;;10.25;4.95;;;;;;;;;;5096632;28;20081;-68
2023/05/18 00:10:24;;;;;;;8.32;4.90;;;;;;;;;;5062054;28;20028;-69
2023/05/18 00:12:49;;;;;;;7.72;5.05;;;;;;;;;;5096361;28;20023;-69
2023/05/18 00:15:15;;;;;;;7.63;4.75;;;;;;;;;;5096353;28;20028;-70
2023/05/18 00:17:41;;;;;;;9.18;5.15;;;;;;;;;;5096235;28;20142;-65
2023/05/18 00:20:09;;;;;;;11.32;5.05;;;;;;;;;;5096079;28;20105;-65
2023/05/18 00:22:34;;;;;;;9.23;5.18;;;;;;;;;;5096152;28;20020;-64
2023/05/18 00:25:00;;;;;;;11.77;4.95;;;;;;;;;;5078223;28;20028;-63
2023/05/18 00:27:26;;;;;;;6.97;4.47;;;;;;;;;;5096345;28;20032;-63
2023/05/18 00:29:52;;;;;;;10.40;4.50;;;;;;;;;;5096002;28;20073;-63
2023/05/18 00:32:17;;;;;;;11.52;4.93;;;;;;;;;;5077758;28;20036;-70
2023/05/18 00:34:42;;;;;;;9.25;5.03;;;;;;;;;;5095756;28;20067;-70
2023/05/18 00:37:08;;;;;;;8.52;4.32;;;;;;;;;;5077815;28;20036;-70
2023/05/18 00:39:33;;;;;;;10.10;4.50;;;;;;;;;;5077647;28;20032;-70
2023/05/18 00:41:58;;;;;;;8.18;4.90;;;;;;;;;;5082214;28;20032;-70
2023/05/18 00:44:24;;;;;;;12.55;4.80;;;;;;;;;;5057353;28;20025;-71
2023/05/18 00:46:49;;;;;;;7.95;4.32;;;;;;;;;;5075240;28;20029;-72
2023/05/18 00:49:16;;;;;;;10.35;4.40;;;;;;;;;;5057626;28;20024;-70
2023/05/18 00:51:42;;;;;;;8.70;4.28;;;;;;;;;;5079414;23;20040;-65
2023/05/18 00:54:08;;;;;;;9.45;3.90;;;;;;;;;;5115847;28;20027;-65
2023/05/18 00:56:34;;;;;;;6.95;3.65;;;;;;;;;;5097599;28;20149;-65
2023/05/18 00:59:00;;;;;;;9.00;4.15;;;;;;;;;;5115880;28;20115;-63
2023/05/18 01:01:28;;;;;;;9.15;4.35;;;;;;;;;;5080522;28;20011;-64
2023/05/18 01:04:00;;;;;;;9.60;4.35;;;;;;;;;;5115548;28;20482;-64
2023/05/18 01:06:26;;;;;;;8.55;3.92;;;;;;;;;;5097271;28;20069;-63
2023/05/18 01:08:52;;;;;;;7.25;3.47;;;;;;;;;;5115471;28;20055;-64
2023/05/18 01:11:36;;;;;;;6.03;3.20;;;;;;;;;;5131288;27;20402;-64
2023/05/18 01:14:20;;;;;;;6.95;3.30;;;;;;;;;;5115323;28;20042;-64
2023/05/18 01:17:04;;;;;;;9.52;3.80;;;;;;;;;;5097030;28;20069;-66
2023/05/18 01:19:49;;;;;;;10.30;3.88;;;;;;;;;;5130914;27;20372;-65
2023/05/18 01:22:33;;;;;;;10.32;3.30;;;;;;;;;;5115263;28;20035;-66
2023/05/18 01:25:03;;;;;;;7.22;3.58;;;;;;;;;;5131138;27;20107;-64
2023/05/18 01:27:36;;;;;;;9.45;3.97;;;;;;;;;;5115136;28;20028;-64
2023/05/18 01:30:03;;;;;;;12.18;4.15;;;;;;;;;;5130933;27;20028;-64
2023/05/18 01:32:28;;;;;;;7.60;3.38;;;;;;;;;;5131170;27;20046;-64
2023/05/18 01:34:53;;;;;;;7.38;3.85;;;;;;;;;;5079784;28;20031;-64
2023/05/18 01:37:20;;;;;;;7.65;4.00;;;;;;;;;;5096653;28;20072;-66
2023/05/18 01:39:46;;;;;;;7.63;3.38;;;;;;;;;;5096608;28;20425;-66
2023/05/18 01:42:14;;;;;;;5.75;3.53;;;;;;;;;;5096574;28;20073;-66
2023/05/18 01:44:42;;;;;;;6.22;3.22;;;;;;;;;;5130251;27;20051;-68
2023/05/18 01:47:13;;;;;;;9.90;3.78;;;;;;;;;;5096474;28;20023;-67
2023/05/18 01:49:45;;;;;;;11.98;3.92;;;;;;;;;;5114732;28;20599;-67
2023/05/18 01:52:19;;;;;;;8.63;4.30;;;;;;;;;;5114442;28;20046;-64
2023/05/18 01:54:48;;;;;;;7.45;3.35;;;;;;;;;;5114648;28;20050;-64
2023/05/18 01:57:15;;;;;;;8.15;3.30;;;;;;;;;;5130445;27;20049;-64
2023/05/18 01:59:41;;;;;;;9.52;3.58;;;;;;;;;;5096046;28;20027;-64
2023/05/18 02:02:07;;;;;;;10.48;4.25;;;;;;;;;;5130409;27;20065;-64
2023/05/18 02:04:34;;;;;;;9.80;4.03;;;;;;;;;;5096189;28;20110;-64
2023/05/18 02:06:59;;;;;;;10.10;4.22;;;;;;;;;;5096286;28;20059;-64
2023/05/18 02:09:25;;;;;;;8.55;3.60;;;;;;;;;;5112929;28;20487;-66
2023/05/18 02:11:50;;;;;;;7.85;3.85;;;;;;;;;;5096098;28;20103;-65
2023/05/18 02:14:15;;;;;;;9.40;3.78;;;;;;;;;;5130214;27;20084;-65
2023/05/18 02:16:41;;;;;;;9.30;3.70;;;;;;;;;;5096013;28;20517;-65
2023/05/18 02:19:06;;;;;;;12.88;4.35;;;;;;;;;;5095813;28;20497;-65
2023/05/18 02:21:34;;;;;;;8.90;3.65;;;;;;;;;;5114178;28;20027;-65
2023/05/18 02:24:01;;;;;;;12.23;3.83;;;;;;;;;;5130079;27;20031;-65
2023/05/18 02:26:26;;;;;;;8.07;3.95;;;;;;;;;;5112886;28;20402;-65
2023/05/18 02:28:52;;;;;;;10.63;3.83;;;;;;;;;;5113637;28;20375;-65
2023/05/18 02:31:17;;;;;;;10.43;3.85;;;;;;;;;;5095302;28;20051;-64
2023/05/18 02:33:43;;;;;;;12.07;4.38;;;;;;;;;;5129758;27;20427;-64
2023/05/18 02:36:09;;;;;;;10.73;3.97;;;;;;;;;;5130296;27;20037;-64
2023/05/18 02:38:35;;;;;;;7.97;3.50;;;;;;;;;;5129855;27;20024;-67
2023/05/18 02:41:01;;;;;;;7.57;3.47;;;;;;;;;;5095654;28;20027;-67
2023/05/18 02:43:26;;;;;;;8.95;4.18;;;;;;;;;;5113968;28;20027;-67
2023/05/18 02:45:51;;;;;;;7.43;3.55;;;;;;;;;;5129765;28;20019;-67
2023/05/18 02:48:17;;;;;;;8.70;4.32;;;;;;;;;;5095736;28;20050;-67
2023/05/18 02:50:44;;;;;;;9.93;3.80;;;;;;;;;;5095741;28;20024;-68
2023/05/18 02:53:10;;;;;;;11.73;4.72;;;;;;;;;;5113630;28;20043;-67
2023/05/18 02:55:36;;;;;;;14.70;6.10;;;;;;;;;;5095565;28;20141;-68
2023/05/18 02:58:12;;;;;;;7.95;3.92;;;;;;;;;;5095613;28;20049;-67
2023/05/18 03:01:02;;;;;;;12.25;4.32;;;;;;;;;;5113604;28;20119;-63
2023/05/18 03:03:34;;;;;;;12.00;4.13;;;;;;;;;;5113831;28;20378;-63
2023/05/18 03:06:01;;;;;;;9.75;4.10;;;;;;;;;;5113723;28;20043;-63
2023/05/18 03:08:27;;;;;;;10.73;3.95;;;;;;;;;;5095500;28;20020;-63
2023/05/18 03:10:53;;;;;;;12.55;5.00;;;;;;;;;;5129514;28;20066;-65
2023/05/18 03:13:19;;;;;;;10.65;4.25;;;;;;;;;;5113583;28;20055;-64
2023/05/18 03:15:45;;;;;;;9.88;5.75;;;;;;;;;;5095376;28;20116;-64
2023/05/18 03:18:12;;;;;;;17.88;11.05;;;;;;;;;;5129597;28;20032;-65
2023/05/18 03:20:38;;;;;;;9.88;5.43;;;;;;;;;;5095268;28;20087;-63
2023/05/18 03:23:04;;;;;;;15.68;7.47;;;;;;;;;;5113588;28;20023;-63
2023/05/18 03:25:31;;;;;;;12.73;5.18;;;;;;;;;;5078715;28;20106;-63
2023/05/18 03:27:57;;;;;;;14.98;6.95;;;;;;;;;;5129491;28;20052;-63
2023/05/18 03:30:23;;;;;;;13.63;7.95;;;;;;;;;;5078532;28;20031;-63
2023/05/18 03:32:48;;;;;;;14.52;6.22;;;;;;;;;;5095229;28;20116;-62
2023/05/18 03:35:15;;;;;;;14.10;7.68;;;;;;;;;;5095234;28;20027;-63
2023/05/18 03:37:40;;;;;;;11.32;6.80;;;;;;;;;;5095502;28;20040;-62
2023/05/18 03:40:13;;;;;;;14.88;8.80;;;;;;;;;;5095137;28;20023;-63
2023/05/18 03:42:41;;;;;;;16.33;8.65;;;;;;;;;;5132700;27;20027;-63
2023/05/18 03:45:07;;;;;;;14.00;6.63;;;;;;;;;;5098834;28;20551;-63
2023/05/18 03:47:33;;;;;;;8.02;5.78;;;;;;;;;;5131110;27;20016;-62
2023/05/18 03:49:58;;;;;;;13.82;6.63;;;;;;;;;;5094247;28;20036;-62
2023/05/18 03:52:24;;;;;;;8.65;3.90;;;;;;;;;;5091556;28;20058;-62
2023/05/18 03:54:50;;;;;;;12.07;7.90;;;;;;;;;;5099221;28;20488;-62
2023/05/18 03:57:15;;;;;;;13.80;6.78;;;;;;;;;;5117046;28;20390;-62
2023/05/18 03:59:43;;;;;;;12.70;8.70;;;;;;;;;;5115697;28;20032;-62
2023/05/18 04:02:09;;;;;;;11.30;6.38;;;;;;;;;;5115237;28;20027;-61
2023/05/18 04:04:35;;;;;;;11.30;6.50;;;;;;;;;;5115806;28;20020;-61
2023/05/18 04:07:01;;;;;;;16.10;9.23;;;;;;;;;;5116563;28;20081;-62
2023/05/18 04:09:27;;;;;;;11.35;5.25;;;;;;;;;;5115441;28;20027;-61
2023/05/18 04:11:52;;;;;;;10.70;4.15;;;;;;;;;;5115340;28;20023;-61
2023/05/18 04:14:19;;;;;;;7.43;3.00;;;;;;;;;;5116606;28;20451;-62
2023/05/18 04:16:45;;;;;;;10.57;3.25;;;;;;;;;;5116397;28;20038;-61
2023/05/18 04:19:10;;;;;;;5.70;2.65;;;;;;;;;;5116392;28;20032;-61
2023/05/18 04:21:36;;;;;;;9.80;3.20;;;;;;;;;;5115109;28;20076;-62
2023/05/18 04:24:05;;;;;;;7.32;3.47;;;;;;;;;;5116290;28;20023;-61
2023/05/18 04:26:33;;;;;;;7.67;2.93;;;;;;;;;;5098107;28;20351;-61
2023/05/18 04:28:59;;;;;;;7.82;2.80;;;;;;;;;;5114862;28;20119;-61
2023/05/18 04:31:26;;;;;;;5.07;2.60;;;;;;;;;;5115017;28;20039;-61
2023/05/18 04:33:52;;;;;;;5.85;2.80;;;;;;;;;;5114820;27;20023;-62
2023/05/18 04:36:19;;;;;;;7.40;2.85;;;;;;;;;;5117081;27;20080;-62
2023/05/18 04:38:45;;;;;;;8.93;3.05;;;;;;;;;;5101707;27;20023;-61
2023/05/18 04:41:11;;;;;;;8.50;3.15;;;;;;;;;;5136642;27;20363;-61
2023/05/18 04:43:37;;;;;;;13.20;8.40;;;;;;;;;;5101507;27;20482;-61
2023/05/18 04:46:02;;;;;;;12.63;6.95;;;;;;;;;;5118266;27;20030;-60
2023/05/18 04:48:29;;;;;;;34.38;18.67;;;;;;;;;;5118088;27;20030;-60
2023/05/18 04:50:54;;;;;;;20.88;11.13;;;;;;;;;;5136678;27;20031;-60
2023/05/18 04:53:23;;;;;;;20.58;12.05;;;;;;;;;;5117011;27;20047;-60
2023/05/18 04:55:48;;;;;;;19.23;12.48;;;;;;;;;;5118052;27;20394;-60
2023/05/18 04:58:15;;;;;;;16.83;10.48;;;;;;;;;;5117938;27;20088;-60
2023/05/18 05:00:41;;;;;;;11.77;6.07;;;;;;;;;;5117606;27;20027;-60
2023/05/18 05:03:07;;;;;;;15.38;8.52;;;;;;;;;;5118193;27;20063;-60
2023/05/18 05:05:33;;;;;;;8.43;4.45;;;;;;;;;;5117781;27;20051;-61
2023/05/18 05:07:58;;;;;;;5.55;2.75;;;;;;;;;;5101278;27;20468;-61
2023/05/18 05:10:23;;;;;;;8.20;3.30;;;;;;;;;;5136527;27;20038;-61
2023/05/18 05:12:49;;;;;;;7.32;3.40;;;;;;;;;;5118060;27;20023;-60
2023/05/18 05:15:15;;;;;;;5.97;2.60;;;;;;;;;;5118117;27;20489;-61
2023/05/18 05:17:41;;;;;;;5.93;2.70;;;;;;;;;;5117780;27;20343;-61
2023/05/18 05:20:07;;;;;;;5.18;2.70;;;;;;;;;;5117803;27;20034;-63
2023/05/18 05:22:33;;;;;;;8.55;3.10;;;;;;;;;;5113878;23;20043;-61
2023/05/18 05:24:59;;;;;;;6.05;3.88;;;;;;;;;;5131405;27;20023;-61
2023/05/18 05:27:27;;;;;;;6.53;2.60;;;;;;;;;;5097044;28;20031;-61
2023/05/18 05:29:52;;;;;;;8.23;3.00;;;;;;;;;;5096904;28;20035;-61
2023/05/18 05:32:29;;;;;;;8.73;2.67;;;;;;;;;;5096863;28;20039;-62
2023/05/18 05:34:54;;;;;;;10.50;2.92;;;;;;;;;;5096906;28;20101;-62
2023/05/18 05:37:20;;;;;;;7.18;3.13;;;;;;;;;;5096190;28;20047;-64
2023/05/18 05:39:47;;;;;;;5.38;2.67;;;;;;;;;;5096510;28;20040;-64
2023/05/18 05:42:15;;;;;;;6.68;2.65;;;;;;;;;;5079705;28;20437;-64
2023/05/18 05:44:40;;;;;;;3.88;2.00;;;;;;;;;;5095754;28;20032;-64
2023/05/18 05:47:07;;;;;;;3.78;2.03;;;;;;;;;;5096495;28;20104;-64
2023/05/18 05:49:33;;;;;;;4.18;1.98;;;;;;;;;;5096744;28;20031;-64
2023/05/18 05:52:00;;;;;;;5.95;2.10;;;;;;;;;;5114987;28;20023;-65
2023/05/18 05:54:25;;;;;;;4.68;1.90;;;;;;;;;;5096169;28;20034;-65
2023/05/18 05:56:51;;;;;;;5.38;3.47;;;;;;;;;;5096175;28;20027;-65
2023/05/18 05:59:17;;;;;;;6.53;3.30;;;;;;;;;;5077874;28;20032;-65
2023/05/18 06:01:43;;;;;;;4.47;2.63;;;;;;;;;;5095319;28;20031;-65
2023/05/18 06:04:14;;;;;;;4.75;3.22;;;;;;;;;;5113871;28;20019;-65
2023/05/18 06:06:39;;;;;;;4.60;2.45;;;;;;;;;;5098431;28;20023;-65
2023/05/18 06:09:06;;;;;;;6.90;2.83;;;;;;;;;;5098331;28;20020;-65
2023/05/18 06:11:31;;;;;;;7.93;2.50;;;;;;;;;;5096623;28;20024;-64
2023/05/18 06:13:57;;;;;;;5.80;2.13;;;;;;;;;;5096208;28;20035;-64
2023/05/18 06:16:23;;;;;;;7.07;2.10;;;;;;;;;;5096254;28;20382;-64
2023/05/18 06:18:48;;;;;;;6.13;2.45;;;;;;;;;;5096080;28;20055;-64
2023/05/18 06:21:14;;;;;;;15.43;10.38;;;;;;;;;;5095969;28;20482;-64
2023/05/18 06:23:40;;;;;;;7.75;5.10;;;;;;;;;;5095841;28;20487;-64
2023/05/18 06:26:27;;;;;;;5.75;4.10;;;;;;;;;;5095972;28;20081;-64
2023/05/18 06:29:22;;;;;;;7.22;2.55;;;;;;;;;;5076921;28;20041;-64
2023/05/18 06:32:08;;;;;;;4.60;2.00;;;;;;;;;;5106559;28;20032;-64
2023/05/18 06:34:36;;;;;;;14.93;6.38;;;;;;;;;;5079513;28;20032;-64
2023/05/18 06:37:02;;;;;;;6.57;2.40;;;;;;;;;;5096445;28;20028;-64
2023/05/18 06:39:27;;;;;;;6.50;1.85;;;;;;;;;;5096033;28;20035;-64
2023/05/18 06:41:53;;;;;;;19.42;6.05;;;;;;;;;;5114029;28;20471;-64
2023/05/18 06:44:22;;;;;;;44.25;12.90;;;;;;;;;;5095766;28;20027;-64
2023/05/18 06:47:04;;;;;;;10.10;3.90;;;;;;;;;;5095754;28;20032;-64
2023/05/18 06:49:30;;;;;;;9.57;5.32;;;;;;;;;;5095743;28;20041;-64
2023/05/18 06:51:55;;;;;;;18.30;6.82;;;;;;;;;;5095686;28;20453;-64
2023/05/18 06:54:21;;;;;;;12.02;7.47;;;;;;;;;;5096001;28;20446;-64
2023/05/18 06:56:46;;;;;;;9.50;5.38;;;;;;;;;;5095614;28;20020;-65
2023/05/18 06:59:13;;;;;;;7.53;3.38;;;;;;;;;;5095489;28;20368;-65
2023/05/18 07:01:38;;;;;;;8.77;4.88;;;;;;;;;;5095506;28;20065;-65
2023/05/18 07:04:05;;;;;;;7.32;3.67;;;;;;;;;;5095837;28;20077;-65
2023/05/18 07:06:31;;;;;;;8.07;3.55;;;;;;;;;;5113723;28;20336;-65
2023/05/18 07:08:57;;;;;;;9.00;3.17;;;;;;;;;;5114006;28;20383;-65
2023/05/18 07:11:22;;;;;;;5.80;2.20;;;;;;;;;;5113751;28;20023;-65
2023/05/18 07:13:48;;;;;;;6.25;2.30;;;;;;;;;;5113932;28;20032;-64
2023/05/18 07:16:13;;;;;;;5.22;1.73;;;;;;;;;;5115290;28;20387;-66
2023/05/18 07:18:40;;;;;;;4.57;2.17;;;;;;;;;;5117705;28;20054;-66
2023/05/18 07:21:06;;;;;;;5.40;2.55;;;;;;;;;;5117872;28;20053;-64
2023/05/18 07:23:31;;;;;;;5.07;2.70;;;;;;;;;;5117532;28;20040;-65
2023/05/18 07:25:56;;;;;;;4.30;2.85;;;;;;;;;;5117573;28;20028;-64
2023/05/18 07:28:22;;;;;;;6.32;2.97;;;;;;;;;;5117529;28;20024;-65
2023/05/18 07:30:51;;;;;;;6.30;3.35;;;;;;;;;;5099199;28;20027;-64
2023/05/18 07:33:16;;;;;;;6.15;3.08;;;;;;;;;;5117723;28;20031;-64
2023/05/18 07:35:44;;;;;;;2.45;2.22;;;;;;;;;;5117922;28;20035;-64
2023/05/18 07:38:11;;;;;;;3.28;2.10;;;;;;;;;;5117678;28;20032;-64
2023/05/18 07:40:37;;;;;;;3.75;2.38;;;;;;;;;;5099406;28;20035;-64
2023/05/18 07:43:02;;;;;;;3.28;1.70;;;;;;;;;;5117561;28;20031;-64
2023/05/18 07:45:28;;;;;;;7.38;2.20;;;;;;;;;;5117174;28;20027;-64
2023/05/18 07:47:53;;;;;;;5.07;2.20;;;;;;;;;;5117422;28;20038;-64
2023/05/18 07:50:18;;;;;;;3.80;2.15;;;;;;;;;;5117624;28;20034;-64
2023/05/18 07:52:44;;;;;;;3.33;1.27;;;;;;;;;;5117101;28;20070;-64
2023/05/18 07:55:10;;;;;;;4.85;2.20;;;;;;;;;;5117541;28;20020;-64
2023/05/18 07:57:35;;;;;;;5.05;2.22;;;;;;;;;;5117282;28;20035;-64
2023/05/18 08:00:03;;;;;;;4.15;1.70;;;;;;;;;;5098847;28;20467;-64
2023/05/18 08:02:38;;;;;;;3.85;2.05;;;;;;;;;;5116865;28;20024;-64
2023/05/18 08:05:04;;;;;;;5.15;2.08;;;;;;;;;;5117341;28;20034;-64
2023/05/18 08:07:31;;;;;;;3.75;1.85;;;;;;;;;;5116799;28;20104;-64
2023/05/18 08:09:57;;;;;;;2.22;1.50;;;;;;;;;;5117025;28;20032;-64
2023/05/18 08:12:23;;;;;;;3.42;2.15;;;;;;;;;;5116696;28;20433;-64
2023/05/18 08:14:50;;;;;;;2.95;1.92;;;;;;;;;;5116597;28;20035;-64
2023/05/18 08:17:15;;;;;;;3.10;1.50;;;;;;;;;;5116854;28;20114;-64
2023/05/18 08:19:41;;;;;;;4.47;1.50;;;;;;;;;;5116742;28;20164;-64
2023/05/18 08:22:06;;;;;;;3.63;1.67;;;;;;;;;;5098104;28;20032;-64
2023/05/18 08:24:32;;;;;;;2.72;1.40;;;;;;;;;;5116984;28;20032;-64
2023/05/18 08:26:58;;;;;;;6.88;1.50;;;;;;;;;;5116586;28;20035;-64
2023/05/18 08:29:24;;;;;;;3.13;1.45;;;;;;;;;;5116642;28;20036;-64
2023/05/18 08:31:49;;;;;;;4.68;1.50;;;;;;;;;;5097979;28;20394;-64
2023/05/18 08:34:15;;;;;;;4.35;1.45;;;;;;;;;;5098030;28;20027;-64
2023/05/18 08:36:43;;;;;;;2.63;1.23;;;;;;;;;;5116517;28;20039;-64
2023/05/18 08:39:09;;;;;;;2.50;1.77;;;;;;;;;;5097715;28;20390;-64
2023/05/18 08:41:37;;;;;;;6.07;2.20;;;;;;;;;;5097895;28;20031;-64
2023/05/18 08:44:08;;;;;;;5.60;1.90;;;;;;;;;;5116103;28;20023;-64
2023/05/18 08:46:47;;;;;;;3.13;1.70;;;;;;;;;;5116019;28;20015;-65
2023/05/18 08:49:15;;;;;;;4.03;2.10;;;;;;;;;;5116255;28;20402;-65
2023/05/18 08:51:44;;;;;;;6.10;3.38;;;;;;;;;;5116221;28;20028;-65
2023/05/18 08:54:10;;;;;;;5.30;3.33;;;;;;;;;;5115869;28;20479;-65
2023/05/18 08:56:37;;;;;;;4.07;3.38;;;;;;;;;;5116139;28;20028;-65
2023/05/18 08:59:03;;;;;;;3.08;1.65;;;;;;;;;;5115717;28;20027;-65
2023/05/18 09:01:30;;;;;;;3.70;1.50;;;;;;;;;;5080633;28;20094;-65
2023/05/18 09:03:56;;;;;;;4.45;1.52;;;;;;;;;;5115946;28;20016;-65
2023/05/18 09:06:24;;;;;;;4.63;2.10;;;;;;;;;;5097332;28;20444;-65
2023/05/18 09:08:53;;;;;;;3.40;1.60;;;;;;;;;;5115557;28;20035;-65
2023/05/18 09:11:18;;;;;;;7.47;4.43;;;;;;;;;;5097920;28;20035;-65
2023/05/18 09:13:44;;;;;;;3.17;1.80;;;;;;;;;;5097614;28;20040;-65
2023/05/18 09:16:10;;;;;;;3.08;1.63;;;;;;;;;;5115389;28;20034;-65
2023/05/18 09:18:35;;;;;;;12.55;5.25;;;;;;;;;;5115675;28;20110;-65
2023/05/18 09:21:00;;;;;;;3.80;1.80;;;;;;;;;;5115578;28;20027;-65
2023/05/18 09:23:26;;;;;;;2.63;1.60;;;;;;;;;;5115130;28;20386;-65
2023/05/18 09:25:53;;;;;;;2.65;1.50;;;;;;;;;;5115528;28;20072;-65
2023/05/18 09:28:38;;;;;;;2.90;1.27;;;;;;;;;;5115443;28;20023;-65
2023/05/18 09:31:04;;;;;;;2.75;1.33;;;;;;;;;;5115480;28;20067;-66
2023/05/18 09:33:34;;;;;;;5.43;1.50;;;;;;;;;;5115348;28;20466;-66
2023/05/18 09:35:59;;;;;;;4.55;1.42;;;;;;;;;;5115351;28;20158;-65
2023/05/18 09:38:26;;;;;;;2.80;1.55;;;;;;;;;;5114523;28;20036;-66
2023/05/18 09:40:52;;;;;;;10.70;7.45;;;;;;;;;;5115498;28;20364;-66
2023/05/18 09:43:20;;;;;;;4.70;2.20;;;;;;;;;;5114927;28;20038;-66
2023/05/18 09:45:47;;;;;;;2.95;1.50;;;;;;;;;;5115147;28;20115;-66
2023/05/18 09:48:13;;;;;;;3.38;2.20;;;;;;;;;;5114849;28;20027;-65
2023/05/18 09:50:38;;;;;;;3.65;1.60;;;;;;;;;;5115077;28;20539;-65
2023/05/18 09:53:07;;;;;;;5.13;1.95;;;;;;;;;;5110480;22;20140;-63
2023/05/18 09:55:35;;;;;;;4.80;2.10;;;;;;;;;;5075684;23;20516;-64
2023/05/18 09:58:02;;;;;;;4.10;1.90;;;;;;;;;;5074016;28;20021;-64
2023/05/18 10:00:27;;;;;;;5.07;1.80;;;;;;;;;;5073925;28;20400;-66
2023/05/18 10:02:55;;;;;;;4.75;1.40;;;;;;;;;;5073961;28;20027;-65
2023/05/18 10:05:21;;;;;;;2.70;1.63;;;;;;;;;;5074220;28;20028;-65
2023/05/18 10:07:47;;;;;;;3.45;1.60;;;;;;;;;;5073890;28;20020;-65
2023/05/18 10:10:15;;;;;;;2.92;1.30;;;;;;;;;;5056293;28;20540;-65
2023/05/18 10:12:40;;;;;;;4.40;1.40;;;;;;;;;;5089468;28;20036;-65
2023/05/18 10:15:09;;;;;;;5.45;1.80;;;;;;;;;;5074074;28;20094;-65
2023/05/18 10:17:41;;;;;;;3.47;1.83;;;;;;;;;;5073727;28;20032;-65
2023/05/18 10:20:08;;;;;;;3.00;1.80;;;;;;;;;;5055658;28;20118;-65
2023/05/18 10:22:34;;;;;;;12.40;3.17;;;;;;;;;;5073934;28;20016;-65
2023/05/18 10:25:02;;;;;;;4.90;2.65;;;;;;;;;;5073684;28;20032;-65
2023/05/18 10:27:27;;;;;;;3.15;1.63;;;;;;;;;;5056053;28;20020;-65
2023/05/18 10:29:56;;;;;;;2.05;1.50;;;;;;;;;;5073796;28;20033;-65
2023/05/18 10:32:21;;;;;;;4.10;1.73;;;;;;;;;;5073847;28;20045;-65
2023/05/18 10:34:48;;;;;;;3.45;1.70;;;;;;;;;;5073550;28;20035;-65
2023/05/18 10:37:15;;;;;;;4.20;1.42;;;;;;;;;;5073539;28;20037;-65
2023/05/18 10:39:44;;;;;;;4.18;1.60;;;;;;;;;;5073712;28;20016;-65
2023/05/18 10:42:09;;;;;;;2.72;1.55;;;;;;;;;;5073443;28;20556;-65
2023/05/18 10:44:35;;;;;;;4.82;2.03;;;;;;;;;;5073426;28;20116;-65
2023/05/18 10:47:00;;;;;;;3.30;1.98;;;;;;;;;;5055808;28;20048;-65
2023/05/18 10:49:26;;;;;;;5.45;2.20;;;;;;;;;;5073424;28;20016;-65
2023/05/18 10:51:53;;;;;;;3.42;1.35;;;;;;;;;;5091488;28;20476;-65
2023/05/18 10:54:20;;;;;;;2.33;1.40;;;;;;;;;;5077324;28;20044;-65
2023/05/18 10:56:47;;;;;;;4.57;1.50;;;;;;;;;;5077776;28;20032;-65
2023/05/18 10:59:13;;;;;;;2.40;1.17;;;;;;;;;;5059452;28;20029;-65
2023/05/18 11:01:40;;;;;;;3.05;1.40;;;;;;;;;;5093176;28;20426;-63
2023/05/18 11:04:06;;;;;;;3.05;1.67;;;;;;;;;;5077673;28;20051;-63
2023/05/18 11:06:33;;;;;;;5.03;2.17;;;;;;;;;;5059431;28;20452;-63
2023/05/18 11:08:59;;;;;;;3.42;2.05;;;;;;;;;;5077268;28;20039;-63
2023/05/18 11:11:25;;;;;;;3.72;1.65;;;;;;;;;;5078075;28;20024;-63
2023/05/18 11:13:51;;;;;;;7.55;1.98;;;;;;;;;;5077159;28;20051;-63
2023/05/18 11:16:17;;;;;;;4.93;1.70;;;;;;;;;;5077384;28;20031;-63
2023/05/18 11:18:48;;;;;;;2.88;1.60;;;;;;;;;;5077310;28;20527;-63
2023/05/18 11:21:20;;;;;;;4.82;1.45;;;;;;;;;;5076953;28;20039;-63
2023/05/18 11:24:06;;;;;;;5.10;1.80;;;;;;;;;;5076959;28;20472;-63
2023/05/18 11:26:31;;;;;;;4.68;1.70;;;;;;;;;;5076771;28;20447;-63
2023/05/18 11:28:57;;;;;;;4.15;1.85;;;;;;;;;;5076839;28;20055;-63
2023/05/18 11:31:42;;;;;;;3.30;1.75;;;;;;;;;;5076823;28;20032;-63
2023/05/18 11:34:25;;;;;;;3.33;1.70;;;;;;;;;;5077085;28;20024;-63
2023/05/18 11:36:54;;;;;;;4.15;1.63;;;;;;;;;;5059408;28;20049;-63
2023/05/18 11:39:23;;;;;;;3.00;1.98;;;;;;;;;;5076616;28;20044;-63
2023/05/18 11:42:04;;;;;;;4.25;3.42;;;;;;;;;;5077155;28;20110;-64
2023/05/18 11:44:31;;;;;;;5.10;3.20;;;;;;;;;;5077113;28;20024;-64
2023/05/18 11:47:04;;;;;;;1.75;1.50;;;;;;;;;;5076542;28;20033;-63
2023/05/18 11:49:49;;;;;;;5.65;2.05;;;;;;;;;;5092168;28;20033;-63
2023/05/18 11:52:15;;;;;;;2.83;1.65;;;;;;;;;;5076373;28;20045;-64
2023/05/18 11:54:49;;;;;;;4.63;1.80;;;;;;;;;;5068176;28;20049;-64
2023/05/18 11:57:16;;;;;;;7.40;3.80;;;;;;;;;;5056788;28;20256;-64
2023/05/18 11:59:45;;;;;;;4.32;2.97;;;;;;;;;;5056181;28;20503;-64
2023/05/18 12:02:12;;;;;;;4.28;2.92;;;;;;;;;;5055842;28;20029;-63
2023/05/18 12:04:41;;;;;;;2.88;2.00;;;;;;;;;;5038775;28;20021;-64
2023/05/18 12:07:07;;;;;;;2.78;1.70;;;;;;;;;;5056445;28;20024;-64
2023/05/18 12:09:33;;;;;;;2.45;1.60;;;;;;;;;;5038360;28;20479;-64
2023/05/18 12:11:59;;;;;;;2.40;1.58;;;;;;;;;;5056353;28;20021;-64
2023/05/18 12:14:25;;;;;;;4.38;2.72;;;;;;;;;;5056299;28;20033;-63
2023/05/18 12:16:51;;;;;;;2.85;1.42;;;;;;;;;;5071703;28;20052;-64
2023/05/18 12:19:18;;;;;;;1.83;1.25;;;;;;;;;;5055863;28;20028;-64
2023/05/18 12:21:43;;;;;;;4.07;1.40;;;;;;;;;;5056183;28;20043;-64
2023/05/18 12:24:09;;;;;;;2.80;1.50;;;;;;;;;;5056198;28;20112;-64
2023/05/18 12:26:35;;;;;;;1.75;1.33;;;;;;;;;;5056102;28;20111;-64
2023/05/18 12:29:01;;;;;;;3.20;1.63;;;;;;;;;;5056066;28;20037;-63
2023/05/18 12:31:27;;;;;;;5.32;1.50;;;;;;;;;;5055771;28;20044;-63
2023/05/18 12:33:53;;;;;;;2.88;1.75;;;;;;;;;;5037318;28;20053;-64
2023/05/18 12:36:18;;;;;;;3.85;1.80;;;;;;;;;;5055930;28;20037;-64
2023/05/18 12:38:47;;;;;;;11.75;5.53;;;;;;;;;;5055848;28;20083;-64
2023/05/18 12:41:20;;;;;;;8.18;4.63;;;;;;;;;;5037741;28;20029;-64
2023/05/18 12:43:46;;;;;;;4.97;3.92;;;;;;;;;;5055494;28;20056;-64
2023/05/18 12:46:11;;;;;;;3.53;2.58;;;;;;;;;;5055492;28;20468;-64
2023/05/18 12:48:43;;;;;;;6.88;3.20;;;;;;;;;;5055386;28;20025;-64
2023/05/18 12:51:16;;;;;;;4.28;2.58;;;;;;;;;;5055651;28;20029;-64
2023/05/18 12:53:41;;;;;;;5.75;4.05;;;;;;;;;;5037837;28;20067;-64
2023/05/18 12:56:10;;;;;;;11.00;5.50;;;;;;;;;;5054159;28;20071;-64
2023/05/18 12:58:35;;;;;;;6.25;5.05;;;;;;;;;;5075266;28;20051;-64
2023/05/18 13:01:10;;;;;;;3.65;3.33;;;;;;;;;;5075090;28;20482;-63
2023/05/18 13:03:39;;;;;;;6.68;5.10;;;;;;;;;;5075099;28;20051;-64
2023/05/18 13:06:06;;;;;;;5.28;4.28;;;;;;;;;;5075850;28;20067;-64
2023/05/18 13:08:32;;;;;;;5.25;4.30;;;;;;;;;;5074968;28;20028;-64
2023/05/18 13:11:04;;;;;;;3.80;3.50;;;;;;;;;;5075189;28;20372;-63
2023/05/18 13:13:30;;;;;;;11.63;7.63;;;;;;;;;;5074112;28;20032;-64
2023/05/18 13:15:58;;;;;;;8.07;7.28;;;;;;;;;;5074821;28;20099;-63
2023/05/18 13:18:23;;;;;;;8.80;6.00;;;;;;;;;;5074800;28;20028;-64
2023/05/18 13:20:50;;;;;;;6.40;5.70;;;;;;;;;;5074667;28;20020;-64
2023/05/18 13:23:16;;;;;;;5.47;5.00;;;;;;;;;;5074452;28;20482;-64
2023/05/18 13:25:45;;;;;;;9.38;7.35;;;;;;;;;;5074590;28;20381;-64
2023/05/18 13:28:11;;;;;;;7.15;4.47;;;;;;;;;;5074605;28;20028;-64
2023/05/18 13:30:37;;;;;;;2.90;2.60;;;;;;;;;;5074343;28;20538;-64
2023/05/18 13:33:03;;;;;;;2.85;2.20;;;;;;;;;;5056572;28;20025;-64
2023/05/18 13:35:29;;;;;;;8.43;4.32;;;;;;;;;;5074399;28;20039;-64
2023/05/18 13:37:54;;;;;;;2.05;1.20;;;;;;;;;;5074063;28;20013;-64
2023/05/18 13:40:20;;;;;;;3.28;1.60;;;;;;;;;;5073873;28;20376;-64
2023/05/18 13:42:46;;;;;;;3.38;3.10;;;;;;;;;;5074162;28;20028;-63
2023/05/18 13:45:12;;;;;;;5.35;3.85;;;;;;;;;;5073499;28;20029;-64
2023/05/18 13:47:37;;;;;;;3.17;1.98;;;;;;;;;;5082584;28;20035;-66
2023/05/18 13:50:04;;;;;;;3.63;3.40;;;;;;;;;;5093778;28;20036;-65
2023/05/18 13:52:30;;;;;;;6.25;5.65;;;;;;;;;;5093913;28;20543;-66
2023/05/18 13:54:55;;;;;;;3.67;3.35;;;;;;;;;;5075885;28;20052;-72
2023/05/18 13:57:22;;;;;;;4.00;1.65;;;;;;;;;;5093091;28;20065;-65
2023/05/18 13:59:48;;;;;;;7.57;6.20;;;;;;;;;;5092244;28;20126;-65
2023/05/18 14:02:13;;;;;;;5.10;4.70;;;;;;;;;;5092868;28;20028;-66
2023/05/18 14:04:38;;;;;;;6.20;5.70;;;;;;;;;;5092921;28;20124;-66
2023/05/18 14:07:04;;;;;;;19.50;17.42;;;;;;;;;;5074495;28;20540;-65
2023/05/18 14:09:29;;;;;;;24.05;21.20;;;;;;;;;;5093023;28;20498;-65
2023/05/18 14:11:56;;;;;;;153.10;116.63;;;;;;;;;;5075603;28;20075;-65
2023/05/18 14:14:22;;;;;;;59.55;44.58;;;;;;;;;;5075229;28;20423;-65
2023/05/18 14:16:47;;;;;;;23.48;20.13;;;;;;;;;;5093257;28;20027;-65
2023/05/18 14:19:13;;;;;;;4.95;4.10;;;;;;;;;;5093687;28;20086;-65
2023/05/18 14:21:38;;;;;;;9.23;8.32;;;;;;;;;;5093880;28;20055;-65
2023/05/18 14:24:06;;;;;;;8.45;6.10;;;;;;;;;;5093031;28;20119;-62
2023/05/18 14:26:32;;;;;;;6.80;5.32;;;;;;;;;;5093078;28;20028;-64
2023/05/18 14:28:58;;;;;;;4.82;3.53;;;;;;;;;;5094307;28;20702;-65
2023/05/18 14:31:23;;;;;;;4.68;3.72;;;;;;;;;;5093692;28;20070;-65
2023/05/18 14:33:49;;;;;;;4.38;1.83;;;;;;;;;;5093752;28;20380;-65
2023/05/18 14:36:16;;;;;;;18.50;13.35;;;;;;;;;;5093815;28;20046;-65
2023/05/18 14:38:42;;;;;;;10.45;7.57;;;;;;;;;;5092780;28;20055;-65